Accueil
METAR-TAF:

METAR-TAF

Aéroports :

Knox County Regional Airport

Rockland, Maine, États-Unis

latitude: 44-04N, longitude: 069-06W, altitude: 17 m

Observation

Le bulletin a été fait il y a 1 heure et 16 minutes, à 12:56 UTC
Vent 8 kt de ouest/nord-ouest, variant entre ouest et nord
Température 11°C
Humidité 50%
Pression 1020 hPa
Visibilité: 16.1 km
Ciel clair

METAR: KRKD 011256Z AUTO 30008KT 270V350 10SM CLR 11/01 A3012 RMK AO2 SLP198 T01060011

Heure: 10:12 (14:12 UTC)

Prévision

Le bulletin a été fait il y a 2 heures et 52 minutes, à 11:20 UTC
Prévision valable du 01 à 12 UTC au 02 à 12 UTC
Vent 4 kt de direction variable
Visibilité: 10 km
Ciel clair
A partir de 01 à 1400 UTC
Vent 9 kt de ouest/sud-ouest
Visibilité: 10 km
Nuages épars à une hauteur de 8000 ft

TAF: KRKD 011120Z 0112/0212 VRB04KT P6SM SKC FM011400 24009KT P6SM SCT080

Observations et prévisions météorologiques de plus de 4000 aéroports (messages METAR et TAF).

Les stations disponibles sont représentées par des disques jaunes et rouges sur la carte.

Passer la souris dessus pour voir le nom de la station.

Cliquer dessus pour voir les observations et prévisions météorologiques.

Pour changer de carte: cliquez sur les boutons verts avec une croix noire pour zoomer, sur le bouton vert avec un tiret pour effectuer un zoom arrière, ou sur les flèches vertes pour les cartes adjacentes.


METAR-TAF: